Time;durP1;ratioP1;P1;durP2;ratioP2;P2;SDS_P1;SDS_P2;PMS_P1;PMS_P2;Temp;Humidity;BMP_temperature;BMP_pressure;BME280_temperature;BME280_humidity;BME280_pressure;Samples;Min_cycle;Max_cycle;Signal;HPM_P1;HPM_P2
2023/04/18 00:00:36;;;;;;;9.87;6.80;;;10.20;99.90;;;;;;5005010;28;20304;-70
2023/04/18 00:03:02;;;;;;;7.60;6.23;;;10.20;99.90;;;;;;5007179;28;20214;-71
2023/04/18 00:05:28;;;;;;;8.27;6.10;;;10.20;99.90;;;;;;5007085;28;20728;-70
2023/04/18 00:07:55;;;;;;;8.57;6.43;;;10.20;99.90;;;;;;5004081;28;20697;-70
2023/04/18 00:10:20;;;;;;;6.80;5.77;;;10.20;99.90;;;;;;5000431;28;20992;-70
2023/04/18 00:12:46;;;;;;;9.37;6.97;;;10.20;99.90;;;;;;5004265;28;20458;-70
2023/04/18 00:15:12;;;;;;;10.07;6.53;;;10.10;99.90;;;;;;5006825;28;20218;-70
2023/04/18 00:17:38;;;;;;;8.77;6.37;;;10.10;99.90;;;;;;5001610;28;20237;-70
2023/04/18 00:20:07;;;;;;;11.70;6.67;;;10.10;99.90;;;;;;5005886;28;20464;-71
2023/04/18 00:22:33;;;;;;;8.13;5.93;;;10.10;99.90;;;;;;5009629;28;20442;-70
2023/04/18 00:24:59;;;;;;;8.33;5.67;;;10.10;99.90;;;;;;5010501;28;20473;-71
2023/04/18 00:27:25;;;;;;;8.50;6.20;;;10.10;99.90;;;;;;5009984;28;20209;-69
2023/04/18 00:29:50;;;;;;;7.37;6.47;;;10.10;99.90;;;;;;5010123;28;20764;-69
2023/04/18 00:32:16;;;;;;;7.97;6.20;;;10.00;99.90;;;;;;5002878;28;20234;-70
2023/04/18 00:34:42;;;;;;;7.63;6.17;;;10.00;99.90;;;;;;5007641;28;20602;-70
2023/04/18 00:37:07;;;;;;;9.13;6.20;;;10.00;99.90;;;;;;4989378;28;20240;-69
2023/04/18 00:39:36;;;;;;;8.13;6.30;;;10.00;99.90;;;;;;4994131;28;20229;-70
2023/04/18 00:42:02;;;;;;;13.67;6.83;;;9.90;99.90;;;;;;4994324;28;20210;-70
2023/04/18 00:44:29;;;;;;;8.77;6.10;;;9.90;99.90;;;;;;4992248;28;20440;-68
2023/04/18 00:46:56;;;;;;;6.13;5.53;;;9.90;99.90;;;;;;4992776;28;20456;-68
2023/04/18 00:49:23;;;;;;;9.97;6.43;;;9.90;99.90;;;;;;5009833;28;20461;-69
2023/04/18 00:51:50;;;;;;;7.73;6.23;;;9.90;99.90;;;;;;5011831;28;20449;-70
2023/04/18 00:54:17;;;;;;;9.90;6.77;;;9.90;99.90;;;;;;5009087;28;20488;-69
2023/04/18 00:56:44;;;;;;;8.17;6.00;;;9.90;99.90;;;;;;5008296;28;20477;-69
2023/04/18 00:59:10;;;;;;;8.00;6.40;;;9.90;99.90;;;;;;5005700;28;20875;-69
2023/04/18 01:01:38;;;;;;;11.70;5.87;;;9.90;99.90;;;;;;5008612;28;20449;-70
2023/04/18 01:04:05;;;;;;;7.80;5.70;;;9.90;99.90;;;;;;5009592;28;20553;-69
2023/04/18 01:06:32;;;;;;;6.90;6.10;;;9.90;99.90;;;;;;4998475;28;20514;-71
2023/04/18 01:09:00;;;;;;;6.77;6.17;;;9.80;99.90;;;;;;5008949;28;21025;-70
2023/04/18 01:11:27;;;;;;;8.53;6.50;;;9.80;99.90;;;;;;5008059;28;20441;-70
2023/04/18 01:14:04;;;;;;;10.90;6.43;;;9.80;99.90;;;;;;5007969;28;20489;-72
2023/04/18 01:16:33;;;;;;;7.77;5.73;;;9.80;99.90;;;;;;5002927;28;20472;-71
2023/04/18 01:19:03;;;;;;;6.00;5.23;;;9.80;99.90;;;;;;5008844;28;21172;-70
2023/04/18 01:21:32;;;;;;;9.97;5.77;;;9.80;99.90;;;;;;5008809;28;20523;-71
2023/04/18 01:24:10;;;;;;;8.73;6.40;;;9.80;99.90;;;;;;5009432;28;20532;-71
2023/04/18 01:26:36;;;;;;;8.60;7.07;;;9.80;99.90;;;;;;5006004;28;20484;-70
2023/04/18 01:29:04;;;;;;;7.80;6.10;;;9.80;99.90;;;;;;4989843;28;20488;-70
2023/04/18 01:31:34;;;;;;;10.33;7.00;;;9.80;99.90;;;;;;5001648;28;20467;-69
2023/04/18 01:34:00;;;;;;;8.00;6.93;;;9.70;99.90;;;;;;5003582;28;20472;-69
2023/04/18 01:36:26;;;;;;;11.07;6.50;;;9.70;99.90;;;;;;5009613;28;20608;-71
2023/04/18 01:38:52;;;;;;;10.20;7.03;;;9.70;99.90;;;;;;5008677;28;20225;-71
2023/04/18 01:41:17;;;;;;;7.87;5.73;;;9.70;99.90;;;;;;4992700;28;20461;-70
2023/04/18 01:43:43;;;;;;;7.67;6.47;;;9.70;99.90;;;;;;5010707;28;20236;-71
2023/04/18 01:46:09;;;;;;;7.40;6.40;;;9.60;99.90;;;;;;4990602;28;20217;-70
2023/04/18 01:48:34;;;;;;;9.67;6.83;;;9.60;99.90;;;;;;5009257;28;20214;-71
2023/04/18 01:51:00;;;;;;;7.37;6.37;;;9.60;99.90;;;;;;5009144;28;20731;-69
2023/04/18 01:53:25;;;;;;;8.70;6.97;;;9.50;99.90;;;;;;5009253;28;20681;-71
2023/04/18 01:55:51;;;;;;;7.17;6.30;;;9.50;99.90;;;;;;4989282;28;20815;-70
2023/04/18 01:58:21;;;;;;;8.63;6.50;;;9.50;99.90;;;;;;4994211;28;20296;-70
2023/04/18 02:00:50;;;;;;;8.00;6.83;;;9.40;99.90;;;;;;4991748;28;20223;-70
2023/04/18 02:03:15;;;;;;;12.43;7.27;;;9.40;99.90;;;;;;5008760;28;20448;-71
2023/04/18 02:05:41;;;;;;;9.33;6.90;;;9.40;99.90;;;;;;4992507;28;20839;-70
2023/04/18 02:08:10;;;;;;;7.13;6.37;;;9.40;99.90;;;;;;5008216;28;20262;-70
2023/04/18 02:10:36;;;;;;;12.53;6.93;;;9.40;99.90;;;;;;5008030;28;20512;-71
2023/04/18 02:13:03;;;;;;;9.80;6.93;;;9.40;99.90;;;;;;5008999;28;20456;-69
2023/04/18 02:15:29;;;;;;;10.03;6.70;;;9.40;99.90;;;;;;5006185;28;20443;-70
2023/04/18 02:17:54;;;;;;;11.23;6.50;;;9.40;99.90;;;;;;5008342;28;20477;-70
2023/04/18 02:20:22;;;;;;;7.77;6.67;;;9.40;99.90;;;;;;5005384;28;20221;-71
2023/04/18 02:22:48;;;;;;;9.80;6.97;;;9.30;99.90;;;;;;5006150;28;20458;-70
2023/04/18 02:25:13;;;;;;;9.77;6.73;;;9.30;99.90;;;;;;5005943;28;20231;-71
2023/04/18 02:27:39;;;;;;;11.43;8.37;;;9.30;99.90;;;;;;5008727;28;20700;-71
2023/04/18 02:30:06;;;;;;;10.10;7.20;;;9.30;99.90;;;;;;4983927;28;20263;-73
2023/04/18 02:32:33;;;;;;;8.80;6.90;;;9.20;99.90;;;;;;5003941;28;20457;-70
2023/04/18 02:34:58;;;;;;;12.40;7.20;;;9.20;99.90;;;;;;5008387;28;21051;-70
2023/04/18 02:37:24;;;;;;;10.07;6.87;;;9.20;99.90;;;;;;5009088;28;20230;-70
2023/04/18 02:39:50;;;;;;;8.80;6.50;;;9.20;99.90;;;;;;5003689;28;20275;-71
2023/04/18 02:42:15;;;;;;;8.33;6.60;;;9.20;99.90;;;;;;5009229;28;20217;-70
2023/04/18 02:44:41;;;;;;;10.33;6.67;;;9.20;99.90;;;;;;4994376;28;20740;-71
2023/04/18 02:47:08;;;;;;;10.93;7.17;;;9.20;99.90;;;;;;5006613;28;20631;-71
2023/04/18 02:49:37;;;;;;;7.77;6.83;;;9.20;99.90;;;;;;4992404;28;20830;-71
2023/04/18 02:52:02;;;;;;;7.40;6.37;;;9.20;99.90;;;;;;5008248;28;20483;-70
2023/04/18 02:54:28;;;;;;;10.40;7.27;;;9.20;99.90;;;;;;5008096;28;20249;-71
2023/04/18 02:57:07;;;;;;;9.93;7.07;;;9.10;99.90;;;;;;4990974;28;20263;-71
2023/04/18 02:59:52;;;;;;;9.17;5.90;;;9.10;99.90;;;;;;4995652;28;20465;-70
2023/04/18 03:02:41;;;;;;;6.87;5.83;;;9.10;99.90;;;;;;4998765;28;20997;-69
2023/04/18 03:05:32;;;;;;;11.97;6.70;;;9.10;99.90;;;;;;5004009;28;20472;-71
2023/04/18 03:08:01;;;;;;;14.27;8.10;;;9.10;99.90;;;;;;4991738;28;20460;-70
2023/04/18 03:10:27;;;;;;;7.77;6.17;;;9.10;99.90;;;;;;5007604;28;20495;-70
2023/04/18 03:12:52;;;;;;;12.03;8.10;;;9.10;99.90;;;;;;5007956;28;20993;-69
2023/04/18 03:15:19;;;;;;;8.70;6.97;;;9.10;99.90;;;;;;5002164;28;20209;-70
2023/04/18 03:17:46;;;;;;;10.07;7.87;;;9.10;99.90;;;;;;5007329;28;20519;-69
2023/04/18 03:20:12;;;;;;;10.53;7.30;;;9.10;99.90;;;;;;5005198;28;20472;-69
2023/04/18 03:22:38;;;;;;;9.80;7.63;;;9.10;99.90;;;;;;4998365;28;20457;-69
2023/04/18 03:25:05;;;;;;;9.27;6.73;;;9.00;99.90;;;;;;4989366;28;20461;-70
2023/04/18 03:27:50;;;;;;;10.30;7.07;;;9.00;99.90;;;;;;4993299;28;20227;-70
2023/04/18 03:30:19;;;;;;;12.10;7.20;;;9.00;99.90;;;;;;5004552;28;20465;-70
2023/04/18 03:32:51;;;;;;;10.00;7.40;;;9.00;99.90;;;;;;5005320;28;20453;-69
2023/04/18 03:35:17;;;;;;;10.17;7.20;;;9.00;99.90;;;;;;5007409;28;20533;-71
2023/04/18 03:37:43;;;;;;;10.53;7.57;;;8.90;99.90;;;;;;4983681;28;21014;-69
2023/04/18 03:40:10;;;;;;;10.47;7.93;;;9.00;99.90;;;;;;5002522;28;20835;-69
2023/04/18 03:42:35;;;;;;;8.33;7.37;;;8.90;99.90;;;;;;5007747;28;20468;-69
2023/04/18 03:45:01;;;;;;;12.53;7.97;;;8.90;99.90;;;;;;5005912;28;20557;-70
2023/04/18 03:47:30;;;;;;;10.47;8.10;;;8.90;99.90;;;;;;4987179;28;20222;-71
2023/04/18 03:49:57;;;;;;;11.40;8.30;;;8.90;99.90;;;;;;5006122;28;20460;-70
2023/04/18 03:52:24;;;;;;;10.90;8.10;;;8.80;99.90;;;;;;4993812;28;20522;-71
2023/04/18 03:54:50;;;;;;;10.47;7.93;;;8.80;99.90;;;;;;5000329;28;20536;-70
2023/04/18 03:57:19;;;;;;;12.70;8.50;;;8.80;99.90;;;;;;5007986;28;20229;-70
2023/04/18 03:59:44;;;;;;;10.20;7.70;;;8.80;99.90;;;;;;4999863;28;20456;-68
2023/04/18 04:02:10;;;;;;;13.10;8.20;;;8.70;99.90;;;;;;5006408;28;20679;-69
2023/04/18 04:04:36;;;;;;;9.40;8.23;;;8.70;99.90;;;;;;5011376;28;20706;-69
2023/04/18 04:07:02;;;;;;;17.63;8.20;;;8.70;99.90;;;;;;5007265;28;20228;-70
2023/04/18 04:09:27;;;;;;;9.13;6.90;;;8.70;99.90;;;;;;4993633;28;20234;-70
2023/04/18 04:11:53;;;;;;;13.77;8.70;;;8.70;99.90;;;;;;4993384;28;20478;-71
2023/04/18 04:14:19;;;;;;;11.53;8.03;;;8.70;99.90;;;;;;4998049;28;20229;-71
2023/04/18 04:16:45;;;;;;;18.20;9.53;;;8.70;99.90;;;;;;5007891;28;20233;-71
2023/04/18 04:19:13;;;;;;;12.83;8.23;;;8.80;99.90;;;;;;5004955;28;20456;-70
2023/04/18 04:21:50;;;;;;;9.83;8.23;;;8.80;99.90;;;;;;5010614;28;20484;-70
2023/04/18 04:24:16;;;;;;;10.73;8.20;;;8.70;99.90;;;;;;5010643;28;20557;-70
2023/04/18 04:26:45;;;;;;;12.53;8.07;;;8.80;99.90;;;;;;5012884;28;20977;-71
2023/04/18 04:29:17;;;;;;;10.60;7.50;;;8.80;99.90;;;;;;5007635;28;20457;-70
2023/04/18 04:31:45;;;;;;;11.23;8.90;;;8.70;99.90;;;;;;4997273;28;20450;-69
2023/04/18 04:34:15;;;;;;;10.77;8.90;;;8.70;99.90;;;;;;5010000;28;20456;-71
2023/04/18 04:36:42;;;;;;;13.33;8.33;;;8.70;99.90;;;;;;5006896;28;20497;-70
2023/04/18 04:39:10;;;;;;;12.07;8.10;;;8.70;99.90;;;;;;5008819;28;20470;-70
2023/04/18 04:41:48;;;;;;;13.33;9.23;;;8.70;99.90;;;;;;5010403;28;20454;-69
2023/04/18 04:44:17;;;;;;;13.60;8.77;;;8.60;99.90;;;;;;5010347;28;20456;-70
2023/04/18 04:46:43;;;;;;;12.03;9.20;;;8.60;99.90;;;;;;5008525;28;21052;-71
2023/04/18 04:49:15;;;;;;;16.83;9.90;;;8.60;99.90;;;;;;5009156;28;20746;-70
2023/04/18 04:51:41;;;;;;;11.90;9.10;;;8.60;99.90;;;;;;5009159;28;20543;-70
2023/04/18 04:54:07;;;;;;;10.33;7.73;;;8.60;99.90;;;;;;5009414;28;20998;-70
2023/04/18 04:56:33;;;;;;;10.07;8.60;;;8.60;99.90;;;;;;5007525;28;20534;-69
2023/04/18 04:58:59;;;;;;;18.03;9.33;;;8.50;99.90;;;;;;4992925;28;20226;-69
2023/04/18 05:01:39;;;;;;;11.13;8.77;;;8.50;99.90;;;;;;5009402;28;20448;-70
2023/04/18 05:04:04;;;;;;;13.57;9.77;;;8.50;99.90;;;;;;4993599;28;20491;-70
2023/04/18 05:06:30;;;;;;;15.47;9.60;;;8.50;99.90;;;;;;5009972;28;20225;-70
2023/04/18 05:08:58;;;;;;;15.70;9.40;;;8.50;99.90;;;;;;5008284;28;20279;-68
2023/04/18 05:11:25;;;;;;;16.67;10.00;;;8.50;99.90;;;;;;5009450;28;20742;-70
2023/04/18 05:13:50;;;;;;;14.67;9.67;;;8.50;99.90;;;;;;5009948;28;20496;-69
2023/04/18 05:16:16;;;;;;;14.70;10.00;;;8.50;99.90;;;;;;5004671;28;20828;-69
2023/04/18 05:18:42;;;;;;;15.30;9.70;;;8.50;99.90;;;;;;4989932;28;20747;-69
2023/04/18 05:21:08;;;;;;;15.10;9.77;;;8.40;99.90;;;;;;5003305;28;20228;-70
2023/04/18 05:23:35;;;;;;;11.83;9.10;;;8.30;99.90;;;;;;5008691;28;20530;-70
2023/04/18 05:26:04;;;;;;;12.40;8.60;;;8.30;99.90;;;;;;5009398;28;20212;-70
2023/04/18 05:28:31;;;;;;;18.00;9.93;;;8.30;99.90;;;;;;4976828;28;20461;-69
2023/04/18 05:31:00;;;;;;;14.60;9.47;;;8.30;99.90;;;;;;5006960;28;20977;-70
2023/04/18 05:33:32;;;;;;;12.70;9.30;;;8.30;99.90;;;;;;4994747;28;20581;-69
2023/04/18 05:35:58;;;;;;;14.53;10.27;;;8.30;99.90;;;;;;5000160;28;20461;-69
2023/04/18 05:38:24;;;;;;;12.53;9.20;;;8.20;99.90;;;;;;4986766;28;20448;-70
2023/04/18 05:40:50;;;;;;;14.70;9.30;;;8.20;99.90;;;;;;5009472;28;20515;-69
2023/04/18 05:43:19;;;;;;;15.23;10.07;;;8.20;99.90;;;;;;5007557;28;20977;-69
2023/04/18 05:45:45;;;;;;;15.40;9.50;;;8.30;99.90;;;;;;5010045;28;20221;-69
2023/04/18 05:48:12;;;;;;;19.80;10.50;;;8.30;99.90;;;;;;5008801;28;20779;-68
2023/04/18 05:50:37;;;;;;;13.93;9.83;;;8.20;99.90;;;;;;4992633;28;20885;-69
2023/04/18 05:53:03;;;;;;;13.17;9.03;;;8.30;99.90;;;;;;5004152;28;20451;-70
2023/04/18 05:55:29;;;;;;;12.80;8.57;;;8.30;99.90;;;;;;4996405;28;20238;-70
2023/04/18 05:57:54;;;;;;;17.50;9.40;;;8.30;99.90;;;;;;5007579;28;20240;-70
2023/04/18 06:00:20;;;;;;;13.77;9.07;;;8.30;99.90;;;;;;5008362;28;20243;-71
2023/04/18 06:02:46;;;;;;;14.57;9.67;;;8.30;99.90;;;;;;5012844;28;20241;-70
2023/04/18 06:05:12;;;;;;;11.50;9.00;;;8.30;99.90;;;;;;5009560;28;20776;-69
2023/04/18 06:07:38;;;;;;;13.70;9.77;;;8.20;99.90;;;;;;5009814;28;20311;-70
2023/04/18 06:10:07;;;;;;;12.50;9.33;;;8.30;99.90;;;;;;5005045;28;20220;-71
2023/04/18 06:12:33;;;;;;;15.17;9.10;;;8.30;99.90;;;;;;5008894;28;20444;-70
2023/04/18 06:14:59;;;;;;;19.73;8.90;;;8.30;99.90;;;;;;5004102;28;21013;-70
2023/04/18 06:17:25;;;;;;;15.40;9.43;;;8.30;99.90;;;;;;5004766;28;20476;-70
2023/04/18 06:19:50;;;;;;;12.43;7.67;;;8.30;99.90;;;;;;5004097;28;20225;-70
2023/04/18 06:22:16;;;;;;;15.70;8.03;;;8.40;99.90;;;;;;5008202;28;20221;-71
2023/04/18 06:24:42;;;;;;;12.67;8.00;;;8.30;99.90;;;;;;4999636;28;20777;-70
2023/04/18 06:27:07;;;;;;;13.20;8.50;;;8.30;99.90;;;;;;5007732;28;20225;-70
2023/04/18 06:29:33;;;;;;;15.20;9.40;;;8.30;99.90;;;;;;4990346;28;20279;-70
2023/04/18 06:31:59;;;;;;;11.27;7.60;;;8.30;99.90;;;;;;5006144;28;20224;-70
2023/04/18 06:34:25;;;;;;;11.33;8.00;;;8.30;99.90;;;;;;5003423;28;20216;-70
2023/04/18 06:36:51;;;;;;;11.63;7.90;;;8.30;99.90;;;;;;4982764;28;20229;-70
2023/04/18 06:39:16;;;;;;;11.20;7.50;;;8.40;99.90;;;;;;5004975;28;20276;-70
2023/04/18 06:41:42;;;;;;;15.50;9.50;;;8.30;99.90;;;;;;5001719;28;20453;-70
2023/04/18 06:44:08;;;;;;;12.43;7.40;;;8.40;99.90;;;;;;5003020;28;20217;-69
2023/04/18 06:46:33;;;;;;;17.10;8.27;;;8.40;99.90;;;;;;5001490;28;20604;-69
2023/04/18 06:48:59;;;;;;;12.10;7.40;;;8.40;99.90;;;;;;5004030;28;20224;-70
2023/04/18 06:51:26;;;;;;;10.17;7.03;;;8.40;99.90;;;;;;5007576;28;20290;-71
2023/04/18 06:53:52;;;;;;;8.33;6.70;;;8.40;99.90;;;;;;5004463;28;20226;-68
2023/04/18 06:56:21;;;;;;;11.30;7.37;;;8.40;99.90;;;;;;5007039;28;20483;-71
2023/04/18 06:58:47;;;;;;;12.70;7.07;;;8.40;99.90;;;;;;5004344;28;20468;-70
2023/04/18 07:01:13;;;;;;;16.80;7.87;;;8.40;99.90;;;;;;5004299;28;20462;-71
2023/04/18 07:03:38;;;;;;;11.13;6.83;;;8.40;99.90;;;;;;5000439;28;20517;-70
2023/04/18 07:06:05;;;;;;;12.37;7.80;;;8.40;99.90;;;;;;4990711;28;20703;-71
2023/04/18 07:08:30;;;;;;;11.60;7.30;;;8.50;99.90;;;;;;4990148;28;20220;-71
2023/04/18 07:10:56;;;;;;;10.57;6.90;;;8.50;99.90;;;;;;5003522;28;20456;-70
2023/04/18 07:13:22;;;;;;;12.87;7.87;;;8.50;99.90;;;;;;5004845;28;20594;-70
2023/04/18 07:15:47;;;;;;;12.67;8.27;;;8.60;99.90;;;;;;4993893;28;20712;-70
2023/04/18 07:18:13;;;;;;;13.67;8.17;;;8.60;99.90;;;;;;4991250;28;20311;-71
2023/04/18 07:20:39;;;;;;;10.97;7.30;;;8.60;99.90;;;;;;5007349;28;20236;-70
2023/04/18 07:23:05;;;;;;;11.87;8.17;;;8.60;99.90;;;;;;5007553;28;20743;-70
2023/04/18 07:25:30;;;;;;;10.57;6.73;;;8.60;99.90;;;;;;5006421;28;20224;-70
2023/04/18 07:27:56;;;;;;;14.30;8.00;;;8.60;99.90;;;;;;4995917;28;20444;-70
2023/04/18 07:30:22;;;;;;;12.87;8.33;;;8.60;99.90;;;;;;4984570;28;20220;-70
2023/04/18 07:32:48;;;;;;;10.00;6.90;;;8.60;99.90;;;;;;4997230;28;20444;-70
2023/04/18 07:35:14;;;;;;;13.87;8.57;;;8.60;99.90;;;;;;5004235;28;20276;-70
2023/04/18 07:37:40;;;;;;;11.53;7.43;;;8.60;99.90;;;;;;5004333;28;20468;-71
2023/04/18 07:40:06;;;;;;;12.10;8.23;;;8.70;99.90;;;;;;5007383;28;20229;-69
2023/04/18 07:42:31;;;;;;;12.47;7.20;;;8.70;99.90;;;;;;5003339;28;20221;-68
2023/04/18 07:44:57;;;;;;;9.23;6.47;;;8.70;99.90;;;;;;5007676;28;20459;-68
2023/04/18 07:47:25;;;;;;;10.90;6.77;;;8.70;99.90;;;;;;5006028;28;20236;-70
2023/04/18 07:49:51;;;;;;;10.07;7.70;;;8.70;99.90;;;;;;5006287;28;20460;-69
2023/04/18 07:52:17;;;;;;;11.80;8.10;;;8.70;99.90;;;;;;5007607;28;20510;-71
2023/04/18 07:54:42;;;;;;;9.50;7.23;;;8.70;99.90;;;;;;5006303;28;20715;-70
2023/04/18 07:57:09;;;;;;;15.20;8.77;;;8.80;99.90;;;;;;5006200;28;20326;-71
2023/04/18 07:59:35;;;;;;;11.93;8.17;;;8.70;99.90;;;;;;4981181;28;20305;-70
2023/04/18 08:02:01;;;;;;;11.83;8.47;;;8.80;99.90;;;;;;4998530;28;20561;-69
2023/04/18 08:04:26;;;;;;;10.30;7.07;;;8.80;99.90;;;;;;4990375;28;20233;-70
2023/04/18 08:06:52;;;;;;;13.23;8.70;;;8.80;99.90;;;;;;5001587;28;20283;-70
2023/04/18 08:09:19;;;;;;;15.40;8.40;;;8.80;99.90;;;;;;5001600;28;20312;-71
2023/04/18 08:11:45;;;;;;;12.23;7.23;;;8.90;99.90;;;;;;5007627;28;20696;-70
2023/04/18 08:14:11;;;;;;;12.87;7.10;;;8.90;99.90;;;;;;4990769;28;20467;-70
2023/04/18 08:16:38;;;;;;;13.00;8.20;;;8.90;99.90;;;;;;5005723;28;20230;-70
2023/04/18 08:19:04;;;;;;;11.30;7.80;;;8.90;99.90;;;;;;4998881;28;20503;-70
2023/04/18 08:21:31;;;;;;;10.57;7.07;;;9.00;99.90;;;;;;4994711;28;20453;-71
2023/04/18 08:23:56;;;;;;;12.30;8.27;;;9.00;99.90;;;;;;5007139;28;20465;-70
2023/04/18 08:26:22;;;;;;;12.00;7.20;;;9.10;99.90;;;;;;4990856;28;20468;-70
2023/04/18 08:28:48;;;;;;;11.73;7.50;;;9.00;99.90;;;;;;5005259;28;20683;-69
2023/04/18 08:31:15;;;;;;;10.43;7.00;;;9.00;99.90;;;;;;5001702;28;20214;-71
2023/04/18 08:33:41;;;;;;;8.27;6.77;;;9.10;99.90;;;;;;5001644;28;20696;-69
2023/04/18 08:36:07;;;;;;;14.83;7.57;;;9.10;99.90;;;;;;5004041;28;20452;-72
2023/04/18 08:38:32;;;;;;;10.60;7.33;;;9.10;99.90;;;;;;4987039;28;20519;-70
2023/04/18 08:40:58;;;;;;;8.43;6.30;;;9.20;99.90;;;;;;5006280;28;20246;-70
2023/04/18 08:43:24;;;;;;;12.90;7.23;;;9.20;99.90;;;;;;5007551;28;20266;-71
2023/04/18 08:45:51;;;;;;;12.90;8.00;;;9.20;99.90;;;;;;5006597;28;20325;-71
2023/04/18 08:48:17;;;;;;;13.17;7.60;;;9.20;99.90;;;;;;5009131;28;20467;-71
2023/04/18 08:50:43;;;;;;;10.90;6.90;;;9.20;99.90;;;;;;5009592;28;20460;-70
2023/04/18 08:53:10;;;;;;;11.03;6.50;;;9.20;99.90;;;;;;5006454;28;20468;-70
2023/04/18 08:55:36;;;;;;;10.47;6.90;;;9.20;99.90;;;;;;5007345;28;20515;-70
2023/04/18 08:58:05;;;;;;;10.20;7.37;;;9.30;99.90;;;;;;4992710;28;20484;-70
2023/04/18 09:00:31;;;;;;;8.27;6.20;;;9.30;99.90;;;;;;5011249;28;20752;-71
2023/04/18 09:02:57;;;;;;;10.77;6.90;;;9.30;99.90;;;;;;5006236;28;20470;-71
2023/04/18 09:05:25;;;;;;;12.43;7.40;;;9.30;99.90;;;;;;5006429;28;20527;-70
2023/04/18 09:07:52;;;;;;;13.77;7.50;;;9.40;99.90;;;;;;5007814;28;20468;-70
2023/04/18 09:10:31;;;;;;;12.07;7.87;;;9.40;99.90;;;;;;5007118;28;20464;-71
2023/04/18 09:12:58;;;;;;;11.10;7.53;;;9.40;99.90;;;;;;5020127;28;21010;-71
2023/04/18 09:15:28;;;;;;;11.03;6.53;;;9.50;99.90;;;;;;5007747;28;20870;-71
2023/04/18 09:18:01;;;;;;;10.60;6.90;;;9.40;99.90;;;;;;5007091;28;20472;-71
2023/04/18 09:20:33;;;;;;;10.23;7.30;;;9.50;99.90;;;;;;4983920;28;20883;-70
2023/04/18 09:22:59;;;;;;;11.27;8.00;;;9.50;99.90;;;;;;4983313;28;20518;-70
2023/04/18 09:25:41;;;;;;;10.80;7.33;;;9.50;99.90;;;;;;5007090;28;20492;-70
2023/04/18 09:28:27;;;;;;;13.90;7.50;;;9.60;99.90;;;;;;5006759;28;20529;-71
2023/04/18 09:30:54;;;;;;;13.23;6.73;;;9.60;99.90;;;;;;5005510;28;20465;-70
2023/04/18 09:33:35;;;;;;;10.23;7.03;;;9.60;99.90;;;;;;5006590;28;20453;-70
2023/04/18 09:36:17;;;;;;;9.60;7.20;;;9.60;99.90;;;;;;5008381;28;20486;-69
2023/04/18 09:38:43;;;;;;;11.97;7.27;;;9.70;99.90;;;;;;4994523;28;20461;-71
2023/04/18 09:41:10;;;;;;;12.37;6.53;;;9.70;99.90;;;;;;5004183;28;20473;-71
2023/04/18 09:43:36;;;;;;;9.27;6.73;;;9.70;99.90;;;;;;4990663;28;20716;-70
2023/04/18 09:46:03;;;;;;;9.00;7.00;;;9.80;99.90;;;;;;5005193;28;20460;-69
2023/04/18 09:48:28;;;;;;;9.43;6.03;;;9.80;99.90;;;;;;5004758;28;20312;-70
2023/04/18 09:50:54;;;;;;;11.13;7.30;;;9.80;99.90;;;;;;5006321;28;20566;-71
2023/04/18 09:53:20;;;;;;;11.30;7.23;;;9.80;99.90;;;;;;5007628;28;20892;-70
2023/04/18 09:55:56;;;;;;;10.50;7.20;;;9.90;99.90;;;;;;5004190;28;20646;-71
2023/04/18 09:58:24;;;;;;;10.23;6.37;;;9.90;99.90;;;;;;5004010;28;20225;-69
2023/04/18 10:00:51;;;;;;;10.03;5.60;;;9.90;99.90;;;;;;5002326;28;20988;-68
2023/04/18 10:03:18;;;;;;;10.40;7.57;;;10.00;99.90;;;;;;5007853;28;20473;-70
2023/04/18 10:05:44;;;;;;;11.77;7.50;;;10.00;99.90;;;;;;5009261;28;20528;-70
2023/04/18 10:08:12;;;;;;;13.17;7.83;;;10.10;99.90;;;;;;4989860;28;20970;-69
2023/04/18 10:10:39;;;;;;;11.70;7.13;;;10.10;99.90;;;;;;5006017;28;20472;-71
2023/04/18 10:13:07;;;;;;;9.03;6.27;;;10.20;99.90;;;;;;5005918;28;20505;-71
2023/04/18 10:15:33;;;;;;;9.33;6.57;;;10.20;99.90;;;;;;5004800;28;20453;-71
2023/04/18 10:18:00;;;;;;;9.87;6.83;;;10.30;99.90;;;;;;5006028;28;20469;-68
2023/04/18 10:20:31;;;;;;;9.10;6.47;;;10.30;99.90;;;;;;5004137;28;20288;-71
2023/04/18 10:22:58;;;;;;;10.33;6.80;;;10.40;99.90;;;;;;4990297;28;20461;-70
2023/04/18 10:25:32;;;;;;;10.20;6.57;;;10.40;99.90;;;;;;5008040;28;20468;-71
2023/04/18 10:28:00;;;;;;;10.60;6.70;;;10.50;99.90;;;;;;5000619;28;20507;-70
2023/04/18 10:30:40;;;;;;;8.60;6.40;;;10.60;99.90;;;;;;4987316;28;20465;-71
2023/04/18 10:33:22;;;;;;;9.97;7.17;;;10.60;99.90;;;;;;4988427;28;20464;-71
2023/04/18 10:36:13;;;;;;;12.10;7.10;;;10.70;99.90;;;;;;5008584;28;20831;-69
2023/04/18 10:38:44;;;;;;;10.77;6.87;;;10.70;99.90;;;;;;4987089;28;20469;-71
2023/04/18 10:41:24;;;;;;;10.37;6.83;;;10.80;99.90;;;;;;4985158;28;20495;-70
2023/04/18 10:44:05;;;;;;;10.03;7.23;;;11.00;99.90;;;;;;5000899;28;20457;-68
2023/04/18 10:46:35;;;;;;;15.50;7.27;;;11.00;99.90;;;;;;4990090;28;20445;-70
2023/04/18 10:49:28;;;;;;;9.43;7.30;;;11.10;99.90;;;;;;4993905;28;20570;-70
2023/04/18 10:51:57;;;;;;;10.83;7.40;;;11.20;99.90;;;;;;4995183;28;20480;-71
2023/04/18 10:54:35;;;;;;;10.70;6.60;;;11.30;99.90;;;;;;5000649;28;20457;-70
2023/04/18 10:57:03;;;;;;;14.63;6.90;;;11.30;99.90;;;;;;4999506;28;20512;-69
2023/04/18 10:59:30;;;;;;;11.37;6.73;;;11.40;99.90;;;;;;4984342;28;20454;-70
2023/04/18 11:02:05;;;;;;;9.03;7.00;;;11.50;99.90;;;;;;4978450;28;20522;-70
2023/04/18 11:04:30;;;;;;;8.87;6.40;;;11.60;99.90;;;;;;4998108;28;20958;-69
2023/04/18 11:06:57;;;;;;;9.43;7.33;;;11.70;99.90;;;;;;5001128;28;20517;-70
2023/04/18 11:09:23;;;;;;;9.90;7.90;;;11.70;99.90;;;;;;5000761;28;20229;-71
2023/04/18 11:12:10;;;;;;;10.90;7.30;;;11.90;99.90;;;;;;4998152;28;20462;-69
2023/04/18 11:14:39;;;;;;;11.50;7.03;;;11.90;99.90;;;;;;4997367;28;20460;-69
2023/04/18 11:17:19;;;;;;;9.83;6.93;;;12.00;99.90;;;;;;4995203;28;20551;-70
2023/04/18 11:19:45;;;;;;;10.30;7.50;;;12.10;99.90;;;;;;5001188;28;20465;-70
2023/04/18 11:22:11;;;;;;;9.47;6.90;;;12.20;99.90;;;;;;4995050;28;20461;-69
2023/04/18 11:24:36;;;;;;;8.70;6.53;;;12.40;99.90;;;;;;4995584;28;20461;-69
2023/04/18 11:27:03;;;;;;;7.30;5.87;;;12.60;99.90;;;;;;5000890;28;20469;-70
2023/04/18 11:29:29;;;;;;;8.70;6.50;;;12.60;99.90;;;;;;4999767;28;20226;-71
2023/04/18 11:31:54;;;;;;;8.90;6.93;;;12.80;99.90;;;;;;4999136;28;20472;-69
2023/04/18 11:34:20;;;;;;;13.57;7.30;;;12.90;99.90;;;;;;4998162;28;20229;-69
2023/04/18 11:36:50;;;;;;;8.00;7.10;;;13.10;99.90;;;;;;4994429;28;20241;-71
2023/04/18 11:39:16;;;;;;;8.53;5.67;;;13.30;99.90;;;;;;4995896;28;20226;-69
2023/04/18 11:41:47;;;;;;;7.00;5.80;;;13.30;99.90;;;;;;4981105;28;20457;-69
2023/04/18 11:44:14;;;;;;;6.90;5.60;;;13.30;99.90;;;;;;4998570;28;20476;-71
2023/04/18 11:46:41;;;;;;;8.90;6.70;;;13.40;99.90;;;;;;4988106;28;20450;-70
2023/04/18 11:49:06;;;;;;;8.00;6.43;;;13.30;99.90;;;;;;4999591;28;20465;-73
2023/04/18 11:51:38;;;;;;;8.30;5.80;;;13.50;99.90;;;;;;4996352;28;20461;-69
2023/04/18 11:54:04;;;;;;;10.43;6.03;;;13.40;99.90;;;;;;5001260;28;20336;-69
2023/04/18 11:56:30;;;;;;;9.40;6.87;;;13.40;99.90;;;;;;4982045;28;20449;-71
2023/04/18 11:58:56;;;;;;;9.73;7.20;;;13.50;99.90;;;;;;4996141;28;20237;-70
2023/04/18 12:01:24;;;;;;;7.20;5.43;;;13.60;99.90;;;;;;4996248;28;20453;-70
2023/04/18 12:04:19;;;;;;;6.80;5.13;;;13.90;99.90;;;;;;4994774;28;20226;-69
2023/04/18 12:06:54;;;;;;;7.13;5.63;;;13.90;99.90;;;;;;4980397;28;21065;-69
2023/04/18 12:09:23;;;;;;;7.73;5.50;;;13.90;99.90;;;;;;4995158;28;20468;-71
2023/04/18 12:12:00;;;;;;;9.10;6.40;;;14.10;99.90;;;;;;4998012;28;20976;-70
2023/04/18 12:14:27;;;;;;;7.83;5.63;;;13.90;99.90;;;;;;5001823;28;20722;-71
2023/04/18 12:16:53;;;;;;;8.50;6.33;;;14.00;99.90;;;;;;4998766;28;20473;-69
2023/04/18 12:19:22;;;;;;;7.00;6.17;;;13.90;99.90;;;;;;4996000;28;20469;-70
2023/04/18 12:22:05;;;;;;;6.93;5.53;;;14.00;99.90;;;;;;4999315;28;20473;-69
2023/04/18 12:24:31;;;;;;;10.33;6.67;;;14.30;99.90;;;;;;5004213;28;20460;-69
2023/04/18 12:26:57;;;;;;;8.47;5.80;;;14.30;99.90;;;;;;4998891;28;20549;-70
2023/04/18 12:29:24;;;;;;;8.57;6.30;;;14.40;99.90;;;;;;5015254;28;20480;-70
2023/04/18 12:31:50;;;;;;;9.00;6.83;;;14.30;99.90;;;;;;4986501;28;20467;-69
2023/04/18 12:34:16;;;;;;;8.60;6.13;;;14.20;99.90;;;;;;4983345;28;20452;-69
2023/04/18 12:36:41;;;;;;;7.97;5.30;;;14.10;99.90;;;;;;5010961;28;20718;-69
2023/04/18 12:39:07;;;;;;;7.53;5.80;;;14.30;99.90;;;;;;5006009;28;20228;-70
2023/04/18 12:41:33;;;;;;;6.67;5.87;;;14.10;99.90;;;;;;5005990;28;20222;-71
2023/04/18 12:43:59;;;;;;;7.77;5.90;;;14.10;99.90;;;;;;5006592;28;20467;-70
2023/04/18 12:46:25;;;;;;;8.53;5.67;;;14.10;99.90;;;;;;5008242;28;20214;-70
2023/04/18 12:48:50;;;;;;;5.87;5.30;;;14.10;99.90;;;;;;5006227;28;20221;-71
2023/04/18 12:51:16;;;;;;;6.40;5.50;;;14.30;99.90;;;;;;5004987;28;20218;-71